Latest Weather Observations for Forrest

IDW60801

Issued at 2:03 pm WST Thursday 25 August 2016 (issued every 30 minutes, with the page automatically refreshed every 10 minutes)

About weather observations | Map of weather stations | Latest weather observations for WA | Other Formats
Station Details ID: 011052 Name: FORREST Lat: -30.85 Lon: 128.11 Height: 159.0 m
Data from the previous 72 hours. | See also: Recent months at Forrest
Date/Time
WST
Temp
°C
App
Temp
°C
Dew
Point
°C
Rel
Hum
%
Delta-T
°C
Wind Press
QNH
hPa
Press
MSL
hPa
Rain since
9am
mm
Dir  Spd
km/h
Gust
km/h
Spd
kts
Gust
kts
25/02:00pm 16.7 12.2 4.1 43 5.9 S 17 32 9 17 1022.6 - 0.0
25/01:30pm 17.1 12.0 4.1 42 6.1 SE 20 32 11 17 1022.6 - 0.0
25/01:00pm 16.4 11.4 3.8 43 5.9 SE 19 32 10 17 1022.8 - 0.0
25/12:30pm 16.3 11.8 4.0 44 5.8 SSE 17 26 9 14 1023.1 - 0.0
25/12:00pm 14.7 10.7 5.0 52 4.6 S 15 26 8 14 1023.6 1023.7 0.0
25/11:30am 14.9 10.5 4.6 50 4.8 SSE 17 24 9 13 1023.9 - 0.0
25/11:00am 14.2 10.1 4.5 52 4.5 S 15 28 8 15 1024.2 - 0.0
25/10:30am 13.5 9.0 4.4 54 4.2 SSE 17 24 9 13 1024.4 - 0.0
25/10:00am 13.1 9.4 6.2 63 3.3 S 15 22 8 12 1024.7 - 0.0
25/09:30am 12.0 7.9 6.1 67 2.8 SSE 17 26 9 14 1024.4 - 0.0
25/09:00am 11.8 7.3 6.9 72 2.3 S 20 32 11 17 1024.2 1024.3 1.2
25/08:30am 10.6 6.9 7.8 83 1.4 S 17 22 9 12 1024.2 - 1.2
25/08:00am 8.8 5.3 7.3 90 0.7 S 15 20 8 11 1024.2 - 1.2
25/07:30am 7.0 2.9 6.3 95 0.3 SSW 17 20 9 11 1023.8 - 1.2
25/07:00am 5.8 1.2 5.5 98 0.1 SW 19 24 10 13 1023.4 - 1.2
25/06:30am 4.8 0.4 4.7 99 0.0 WSW 17 20 9 11 1022.7 - 1.2
25/06:00am 4.4 0.3 4.1 98 0.1 WSW 15 19 8 10 1022.4 1022.5 1.2
25/05:30am 4.3 -0.2 4.0 98 0.1 WSW 17 19 9 10 1022.2 - 1.2
25/05:00am 4.4 0.3 4.1 98 0.1 WSW 15 19 8 10 1021.8 - 1.2
25/04:30am 4.6 -0.3 4.3 98 0.1 W 19 26 10 14 1021.3 - 1.2
25/04:00am 4.7 -0.4 4.3 97 0.2 W 20 24 11 13 1021.0 - 1.2
25/03:30am 5.0 0.0 4.6 97 0.2 WSW 20 26 11 14 1020.7 - 1.2
25/03:00am 5.3 0.5 4.7 96 0.3 WSW 19 26 10 14 1020.6 1020.6 1.0
25/02:30am 5.6 0.2 4.7 94 0.4 W 22 28 12 15 1020.5 - 1.0
25/02:00am 5.5 1.1 4.8 95 0.3 W 17 20 9 11 1020.8 - 1.0
25/01:30am 5.2 0.8 4.8 97 0.2 W 17 19 9 10 1021.0 - 1.0
25/01:00am 4.4 0.6 4.0 97 0.2 W 13 17 7 9 1021.2 - 1.0
25/12:30am 4.2 0.0 3.8 97 0.2 W 15 17 8 9 1021.3 - 1.0
25/12:00am 4.7 0.6 4.1 96 0.3 W 15 17 8 9 1021.2 1021.2 1.0
 
Date/Time
WST
Temp
°C
App
Temp
°C
Dew
Point
°C
Rel
Hum
%
Delta-T
°C
Wind Press
QNH
hPa
Press
MSL
hPa
Rain since
9am
mm
Dir  Spd
km/h
Gust
km/h
Spd
kts
Gust
kts
24/11:30pm 5.2 1.2 4.8 97 0.2 WSW 15 17 8 9 1021.1 - 1.0
24/11:00pm 5.5 1.5 5.1 97 0.2 WSW 15 17 8 9 1021.3 - 1.0
24/10:30pm 5.9 2.0 5.5 97 0.2 WSW 15 17 8 9 1021.4 - 1.0
24/10:00pm 6.4 2.6 5.8 96 0.3 WSW 15 17 8 9 1021.4 - 1.0
24/09:30pm 6.9 2.8 6.3 96 0.3 W 17 20 9 11 1021.4 - 1.0
24/09:00pm 7.4 3.8 6.7 95 0.3 SW 15 17 8 9 1021.5 1021.5 1.0
24/08:30pm 8.2 4.3 7.1 93 0.5 SW 17 22 9 12 1021.5 - 1.0
24/08:00pm 8.8 4.4 7.4 91 0.7 SW 20 26 11 14 1021.3 - 1.0
24/07:30pm 9.3 5.1 8.4 94 0.4 SW 20 26 11 14 1021.1 - 1.0
24/07:00pm 9.3 5.7 8.2 93 0.5 SW 17 24 9 13 1020.9 - 1.0
24/06:30pm 9.2 5.0 8.3 94 0.4 SW 20 28 11 15 1020.5 - 1.0
24/06:00pm 9.3 4.0 8.4 94 0.4 SSW 26 33 14 18 1020.3 1020.3 0.8
24/05:30pm 9.2 2.7 8.3 94 0.4 SSW 32 41 17 22 1019.9 - 0.6
24/05:00pm 10.8 3.2 7.7 81 1.5 SSW 37 48 20 26 1019.4 - 0.0
24/04:30pm 12.7 4.2 7.0 68 2.8 SW 41 56 22 30 1018.9 - 0.0
24/04:00pm 13.2 4.7 7.0 66 3.0 SW 41 50 22 27 1018.5 - 0.0
24/03:30pm 14.2 6.1 7.0 62 3.5 SSW 39 48 21 26 1018.0 - 0.0
24/03:19pm 15.0 6.5 6.8 58 4.0 SSW 41 50 22 27 1017.8 - 0.0
24/03:00pm 15.1 6.2 5.0 51 4.8 SW 41 67 22 36 1017.6 1017.7 0.0
24/02:57pm 15.7 6.6 4.1 46 5.4 WSW 41 67 22 36 1017.4 - 0.0
24/02:30pm 16.6 7.7 0.7 34 7.0 WSW 37 50 20 27 1017.3 - 0.0
24/02:00pm 16.3 7.6 2.0 38 6.4 W 37 48 20 26 1017.5 - 0.0
24/01:30pm 15.9 7.3 2.7 41 6.0 WSW 37 50 20 27 1017.9 - 0.0
24/01:03pm 16.9 9.5 5.2 46 5.6 WSW 33 52 18 28 1018.0 - 0.0
24/01:00pm 17.1 10.0 5.7 47 5.6 WSW 32 46 17 25 1018.3 - 0.0
24/12:30pm 14.6 8.9 6.7 59 3.9 WSW 26 32 14 17 1018.8 - 0.0
24/12:00pm 15.5 10.2 7.0 57 4.2 WSW 24 33 13 18 1019.3 1019.3 0.0
24/11:30am 14.2 8.9 6.8 61 3.6 WSW 24 33 13 18 1019.7 - 0.0
24/11:00am 13.6 9.0 8.0 69 2.8 WSW 22 32 12 17 1020.3 - 0.0
24/10:30am 14.5 9.5 6.3 58 4.0 WSW 22 30 12 16 1020.5 - 0.0
24/10:00am 12.8 7.1 6.8 67 2.9 WSW 26 32 14 17 1020.7 - 0.0
24/09:30am 13.3 8.0 6.6 64 3.2 SW 24 33 13 18 1020.8 - 0.0
24/09:00am 13.2 8.0 7.4 68 2.8 SW 24 32 13 17 1020.8 1020.8 0.0
24/08:30am 12.0 7.2 7.5 74 2.2 SW 22 30 12 16 1020.9 - 0.0
24/08:00am 11.3 7.1 7.6 78 1.8 WSW 19 24 10 13 1020.8 - 0.0
24/07:30am 9.1 5.2 6.9 86 1.0 WSW 17 22 9 12 1020.7 - 0.0
24/07:00am 7.3 3.2 6.1 92 0.5 W 17 20 9 11 1020.5 - 0.0
24/06:30am 5.3 1.2 4.6 95 0.3 W 15 17 8 9 1020.3 - 0.0
24/06:00am 5.2 1.1 4.5 95 0.3 W 15 17 8 9 1020.1 1020.1 0.0
24/05:30am 4.8 0.3 4.1 95 0.3 W 17 19 9 10 1019.8 - 0.0
24/05:00am 5.3 0.8 4.4 94 0.4 WSW 17 19 9 10 1019.5 - 0.0
24/04:30am 5.2 1.1 4.3 94 0.4 WSW 15 17 8 9 1019.3 - 0.0
24/04:00am 5.4 1.0 4.5 94 0.4 WSW 17 19 9 10 1019.0 - 0.0
24/03:30am 5.5 1.1 4.5 93 0.4 WSW 17 20 9 11 1018.9 - 0.0
24/03:00am 5.3 1.2 4.3 93 0.4 WSW 15 17 8 9 1018.7 1018.7 0.0
24/02:30am 5.9 1.9 4.7 92 0.5 WSW 15 17 8 9 1018.7 - 0.0
24/02:00am 6.4 2.5 5.2 92 0.5 SW 15 17 8 9 1018.8 - 0.0
24/01:30am 6.5 1.8 5.3 92 0.5 SW 19 20 10 11 1018.8 - 0.0
24/01:00am 5.6 1.1 4.2 91 0.6 WSW 17 19 9 10 1019.0 - 0.0
24/12:30am 5.9 1.8 4.4 90 0.6 WSW 15 17 8 9 1019.0 - 0.0
24/12:00am 6.6 3.0 5.1 90 0.7 SW 13 15 7 8 1018.8 1018.8 0.0
 
Date/Time
WST
Temp
°C
App
Temp
°C
Dew
Point
°C
Rel
Hum
%
Delta-T
°C
Wind Press
QNH
hPa
Press
MSL
hPa
Rain since
9am
mm
Dir  Spd
km/h
Gust
km/h
Spd
kts
Gust
kts
23/11:30pm 7.0 3.1 5.2 88 0.8 SW 15 17 8 9 1018.9 - 0.0
23/11:00pm 6.0 2.5 3.7 85 1.0 SW 11 13 6 7 1019.0 - 0.0
23/10:30pm 7.1 3.8 4.4 83 1.2 SW 11 11 6 6 1019.1 - 0.0
23/10:00pm 7.8 4.6 5.1 83 1.2 SSW 11 13 6 7 1019.2 - 0.0
23/09:30pm 8.5 5.3 5.3 80 1.4 S 11 13 6 7 1019.2 - 0.0
23/09:00pm 9.3 6.6 5.5 77 1.7 S 9 11 5 6 1019.1 1019.1 0.0
23/08:30pm 9.9 7.2 5.7 75 1.9 SSE 9 11 5 6 1019.2 - 0.0
23/08:00pm 10.3 6.8 5.5 72 2.2 SSE 13 15 7 8 1018.9 - 0.0
23/07:30pm 11.0 7.4 5.1 67 2.7 S 13 19 7 10 1018.7 - 0.0
23/07:00pm 11.9 7.9 5.1 63 3.2 S 15 17 8 9 1018.3 - 0.0
23/06:30pm 12.9 8.6 5.3 60 3.6 S 17 20 9 11 1017.7 - 0.0
23/06:00pm 13.6 8.7 5.3 57 3.9 S 20 28 11 15 1017.3 1017.4 0.0
23/05:30pm 14.6 8.9 5.1 53 4.5 S 24 32 13 17 1016.7 - 0.0
23/05:00pm 15.7 10.5 3.5 44 5.6 S 20 28 11 15 1016.0 - 0.0
23/04:30pm 16.8 11.5 3.1 40 6.3 S 20 28 11 15 1015.6 - 0.0
23/04:00pm 16.9 11.7 3.6 41 6.2 S 20 28 11 15 1015.4 - 0.0
23/03:30pm 17.8 11.4 0.9 32 7.5 SSW 24 33 13 18 1015.2 - 0.0
23/03:00pm 17.9 12.1 2.2 35 7.2 SSW 22 32 12 17 1015.0 1015.0 0.0
23/02:30pm 17.5 10.9 2.3 36 6.9 SSW 26 35 14 19 1015.1 - 0.0
23/02:00pm 17.7 11.9 2.5 36 7.0 SSW 22 32 12 17 1015.0 - 0.0
23/01:30pm 18.2 12.7 2.1 34 7.4 SSW 20 30 11 16 1014.9 - 0.0
23/01:00pm 17.8 13.4 2.9 37 6.9 WSW 15 30 8 16 1015.0 - 0.0
23/12:30pm 18.2 13.5 3.3 37 7.0 SSW 17 28 9 15 1015.1 - 0.0
23/12:00pm 16.9 11.7 2.5 38 6.6 SSW 19 28 10 15 1015.7 1015.7 0.0
23/11:30am 17.3 13.4 3.6 40 6.4 S 13 22 7 12 1016.1 - 0.0
23/11:00am 16.9 13.1 3.9 42 6.1 S 13 28 7 15 1016.5 - 0.0
23/10:30am 15.8 11.9 3.3 43 5.8 S 13 20 7 11 1016.7 - 0.0
23/10:00am 15.1 11.0 4.2 48 5.1 S 15 19 8 10 1016.8 - 0.0
23/09:30am 14.5 11.2 6.6 59 3.9 SSE 13 19 7 10 1016.9 - 0.0
23/09:00am 13.0 9.7 8.1 72 2.4 S 15 19 8 10 1016.8 1016.9 0.0
23/08:30am 11.7 8.2 8.9 83 1.4 SSW 17 20 9 11 1017.0 - 0.0
23/08:00am 9.6 6.3 8.0 90 0.8 SSW 15 19 8 10 1016.7 - 0.0
23/07:30am 8.1 4.0 7.8 98 0.1 SSW 19 24 10 13 1016.8 - 0.0
23/07:00am 7.1 2.7 6.5 96 0.3 SSW 19 24 10 13 1016.7 - 0.0
23/06:30am 6.2 2.0 5.8 97 0.2 SW 17 20 9 11 1016.4 - 0.0
23/06:00am 5.6 1.0 5.5 99 0.0 WSW 19 30 10 16 1016.2 1016.2 0.0
23/05:30am 3.7 0.9 3.0 95 0.3 SSE 7 9 4 5 1015.5 - 0.0
23/05:00am 5.1 2.6 4.7 97 0.2 SSW 7 9 4 5 1015.3 - 0.0
23/04:30am 4.2 1.1 3.6 96 0.3 SSW 9 9 5 5 1015.0 - 0.0
23/04:00am 4.5 2.8 3.9 96 0.3 SE 2 7 1 4 1014.8 - 0.0
23/03:30am 4.7 2.1 4.0 95 0.3 E 7 9 4 5 1014.6 - 0.0
23/03:00am 5.3 2.8 4.6 95 0.3 SE 7 11 4 6 1014.4 1014.4 0.0
23/02:30am 5.5 2.6 4.6 94 0.4 SSE 9 11 5 6 1014.6 - 0.0
23/02:00am 5.9 2.7 5.0 94 0.4 S 11 15 6 8 1014.4 - 0.0
23/01:30am 6.2 3.0 5.0 92 0.5 S 11 15 6 8 1014.3 - 0.0
23/01:00am 6.6 3.0 5.1 90 0.7 S 13 17 7 9 1014.2 - 0.0
23/12:30am 7.8 4.4 6.1 89 0.8 S 13 19 7 10 1014.3 - 0.0
23/12:00am 7.8 4.3 5.6 86 1.0 E 13 15 7 8 1013.8 1013.8 0.0
 
Date/Time
WST
Temp
°C
App
Temp
°C
Dew
Point
°C
Rel
Hum
%
Delta-T
°C
Wind Press
QNH
hPa
Press
MSL
hPa
Rain since
9am
mm
Dir  Spd
km/h
Gust
km/h
Spd
kts
Gust
kts
22/11:30pm 8.7 4.9 6.0 83 1.2 ENE 15 19 8 10 1013.9 - 0.0
22/11:00pm 9.4 5.6 5.9 79 1.6 NE 15 17 8 9 1014.1 - 0.0
22/10:30pm 10.3 6.2 6.1 75 2.0 E 17 19 9 10 1014.1 - 0.0
22/10:00pm 11.5 7.0 6.2 70 2.5 E 19 24 10 13 1014.4 - 0.0
22/09:30pm 11.9 8.1 6.0 67 2.8 SE 15 19 8 10 1014.8 - 0.0
22/09:00pm 12.1 7.7 4.6 60 3.4 SE 17 24 9 13 1014.9 1014.9 0.0
22/08:30pm 12.5 7.6 4.0 56 3.9 SE 19 24 10 13 1014.8 - 0.0
22/08:00pm 12.9 6.9 3.6 53 4.2 SE 24 32 13 17 1014.6 - 0.0
22/07:30pm 13.4 5.8 2.9 49 4.7 SE 32 41 17 22 1014.2 - 0.0
22/07:00pm 14.5 8.7 4.2 50 4.8 SE 24 32 13 17 1013.7 - 0.0
22/06:30pm 14.9 10.9 0.7 38 6.1 SSE 11 13 6 7 1013.3 - 0.0
22/06:00pm 15.3 11.7 0.7 37 6.3 SSE 9 11 5 6 1013.0 1013.0 0.0
22/05:30pm 15.6 12.4 0.6 36 6.5 SSE 7 9 4 5 1012.5 - 0.0
22/05:00pm 16.1 12.1 0.7 35 6.7 SSE 11 13 6 7 1012.2 - 0.0
22/04:30pm 16.7 13.1 0.4 33 7.1 SSW 9 13 5 7 1012.0 - 0.0
22/04:00pm 17.1 13.5 0.3 32 7.3 S 9 13 5 7 1011.8 - 0.0
22/03:30pm 17.6 13.6 0.3 31 7.6 WSW 11 17 6 9 1011.6 - 0.0
22/03:00pm 17.5 13.1 0.6 32 7.5 SE 13 17 7 9 1011.4 1011.5 0.0
22/02:30pm 17.6 13.3 0.7 32 7.5 S 13 20 7 11 1011.4 - 0.0

Other Formats:

Comma delimited format used in spreadsheet applications
http://www.bom.gov.au/fwo/IDW60801/IDW60801.95646.axf

JavaScript Object Notation format (JSON) in row-major order
http://www.bom.gov.au/fwo/IDW60801/IDW60801.95646.json